createdAt,value
2023-04-21T00:01:37.248Z,17.88
2023-04-21T00:06:41.645Z,17.65
2023-04-21T00:11:45.451Z,18.92
2023-04-21T00:16:52.591Z,19.35
2023-04-21T00:21:59.084Z,19.10
2023-04-21T00:27:03.740Z,20.30
2023-04-21T00:32:10.167Z,19.08
2023-04-21T00:37:13.806Z,21.17
2023-04-21T00:42:17.805Z,20.92
2023-04-21T00:47:23.124Z,17.88
2023-04-21T00:57:31.936Z,20.23
2023-04-21T01:02:39.184Z,19.83
2023-04-21T01:07:42.800Z,20.92
2023-04-21T01:12:49.218Z,20.88
2023-04-21T01:17:57.108Z,22.83
2023-04-21T01:23:02.224Z,21.05
2023-04-21T01:28:05.833Z,20.53
2023-04-21T01:33:09.099Z,22.15
2023-04-21T01:38:14.402Z,19.17
2023-04-21T01:43:20.002Z,23.23
2023-04-21T01:48:23.677Z,20.98
2023-04-21T01:53:28.432Z,19.58
2023-04-21T01:58:32.511Z,20.77
2023-04-21T02:03:37.465Z,20.52
2023-04-21T02:08:48.059Z,20.15
2023-04-21T02:13:51.510Z,20.42
2023-04-21T02:18:55.198Z,19.27
2023-04-21T02:24:00.133Z,19.05
2023-04-21T02:29:04.038Z,20.37
2023-04-21T02:34:07.296Z,19.55
2023-04-21T02:39:12.051Z,18.52
2023-04-21T02:44:15.347Z,18.50
2023-04-21T02:49:18.953Z,16.77
2023-04-21T02:54:23.847Z,17.25
2023-04-21T02:59:27.080Z,16.47
2023-04-21T03:04:32.422Z,17.00
2023-04-21T03:09:37.192Z,16.42
2023-04-21T03:14:40.463Z,17.65
2023-04-21T03:19:43.665Z,16.08
2023-04-21T03:24:49.550Z,16.13
2023-04-21T03:29:52.812Z,16.40
2023-04-21T03:34:56.084Z,14.70
2023-04-21T03:40:01.112Z,15.75
2023-04-21T03:45:05.179Z,14.13
2023-04-21T03:50:10.586Z,14.98
2023-04-21T03:55:15.204Z,15.85
2023-04-21T04:00:18.505Z,15.98
2023-04-21T04:05:22.157Z,14.38
2023-04-21T04:10:26.895Z,14.90
2023-04-21T04:15:30.200Z,15.37
2023-04-21T04:20:33.404Z,13.35
2023-04-21T04:25:39.290Z,13.70
2023-04-21T04:30:42.764Z,14.43
2023-04-21T04:35:47.648Z,14.65
2023-04-21T04:40:57.728Z,13.23
2023-04-21T04:46:01.879Z,13.50
2023-04-21T04:51:05.373Z,13.82
2023-04-21T04:56:10.455Z,13.77
2023-04-21T05:01:14.554Z,13.70
2023-04-21T05:06:18.095Z,12.27
2023-04-21T05:11:23.244Z,13.52
2023-04-21T05:16:26.591Z,12.70
2023-04-21T05:21:31.454Z,11.95
2023-04-21T05:26:36.219Z,11.85
2023-04-21T05:31:40.074Z,13.00
2023-04-21T05:36:43.589Z,13.25
2023-04-21T05:41:48.447Z,12.65
2023-04-21T05:46:51.720Z,12.57
2023-04-21T05:51:54.930Z,11.88
2023-04-21T05:56:59.872Z,12.25
2023-04-21T06:02:04.708Z,11.10
2023-04-21T06:07:09.779Z,12.70
2023-04-21T06:12:14.356Z,12.02
2023-04-21T06:17:19.122Z,11.50
2023-04-21T06:22:22.480Z,11.80
2023-04-21T06:27:27.141Z,10.73
2023-04-21T06:32:30.382Z,10.35
2023-04-21T06:37:33.910Z,10.85
2023-04-21T06:42:38.528Z,11.23
2023-04-21T06:47:41.825Z,10.67
2023-04-21T06:52:45.128Z,10.07
2023-04-21T06:57:49.753Z,9.32
2023-04-21T07:02:53.041Z,9.83
2023-04-21T07:07:59.813Z,8.88
2023-04-21T07:13:04.850Z,8.32
2023-04-21T07:18:08.549Z,9.43
2023-04-21T07:23:12.169Z,8.63
2023-04-21T07:28:17.270Z,8.93
2023-04-21T07:33:21.038Z,8.35
2023-04-21T07:38:24.973Z,9.55
2023-04-21T07:43:31.144Z,8.57
2023-04-21T07:48:34.612Z,8.63
2023-04-21T07:53:38.198Z,7.28
2023-04-21T07:58:43.232Z,6.80
2023-04-21T08:03:46.630Z,7.90
2023-04-21T08:08:50.291Z,7.50
2023-04-21T08:13:55.357Z,6.78
2023-04-21T08:18:58.769Z,7.07
2023-04-21T08:24:02.636Z,7.40
2023-04-21T08:29:11.047Z,7.47
2023-04-21T08:34:14.748Z,7.68
2023-04-21T08:39:18.778Z,7.05
2023-04-21T08:44:24.239Z,6.40
2023-04-21T08:49:32.101Z,6.45
2023-04-21T08:54:36.410Z,5.90
2023-04-21T08:59:41.077Z,5.22
2023-04-21T09:04:46.446Z,5.13
2023-04-21T09:10:10.585Z,5.75
2023-04-21T09:21:17.065Z,5.88
2023-04-21T09:26:23.376Z,5.80
2023-04-21T09:31:29.432Z,5.28
2023-04-21T09:36:34.719Z,4.85
2023-04-21T09:46:45.263Z,4.05
2023-04-21T09:52:16.921Z,5.28
2023-04-21T09:57:18.536Z,3.63
2023-04-21T10:02:22.745Z,3.50
2023-04-21T10:07:27.860Z,3.60
2023-04-21T10:12:31.845Z,3.58
2023-04-21T10:17:37.441Z,3.80
2023-04-21T10:22:44.724Z,3.17
2023-04-21T10:27:48.494Z,2.97
2023-04-21T10:33:04.096Z,3.40
2023-04-21T10:38:10.347Z,3.78
2023-04-21T10:43:45.309Z,3.13
2023-04-21T10:48:54.202Z,3.40
2023-04-21T10:53:59.663Z,3.55
2023-04-21T10:59:03.290Z,3.08
2023-04-21T11:04:07.235Z,3.10
2023-04-21T11:09:12.248Z,3.92
2023-04-21T11:14:19.368Z,3.08
2023-04-21T11:19:24.931Z,2.78
2023-04-21T11:24:30.057Z,3.05
2023-04-21T11:34:39.376Z,3.53
2023-04-21T11:39:44.949Z,3.13
2023-04-21T11:44:48.812Z,2.83
2023-04-21T11:49:55.526Z,2.95
2023-04-21T11:55:03.977Z,3.13
2023-04-21T12:00:11.055Z,3.55
2023-04-21T12:05:16.046Z,3.05
2023-04-21T12:15:25.657Z,3.17
2023-04-21T12:20:31.533Z,3.63
2023-04-21T12:25:36.774Z,3.10
2023-04-21T12:30:42.317Z,3.28
2023-04-21T12:35:46.417Z,3.38
2023-04-21T12:40:51.541Z,3.10
2023-04-21T12:45:55.604Z,3.25
2023-04-21T12:50:59.174Z,2.63
2023-04-21T12:56:05.396Z,2.83
2023-04-21T13:01:09.535Z,3.20
2023-04-21T13:06:13.704Z,2.40
2023-04-21T13:11:18.885Z,3.05
2023-04-21T13:16:22.586Z,2.53
2023-04-21T13:21:26.658Z,3.10
2023-04-21T13:26:33.921Z,2.67
2023-04-21T13:31:37.410Z,3.20
2023-04-21T13:36:41.340Z,2.97
2023-04-21T13:41:46.464Z,3.42
2023-04-21T13:46:52.634Z,2.70
2023-04-21T13:51:56.198Z,2.60
2023-04-21T13:57:01.595Z,3.22
2023-04-21T14:02:05.526Z,3.20
2023-04-21T14:07:09.508Z,2.78
2023-04-21T14:12:14.668Z,3.08
2023-04-21T14:17:18.229Z,2.47
2023-04-21T14:22:22.101Z,1.83
2023-04-21T14:27:27.053Z,2.35
2023-04-21T14:37:34.542Z,2.55
2023-04-21T14:42:39.581Z,2.58
2023-04-21T14:52:49.974Z,2.50
2023-04-21T14:57:55.101Z,2.60
2023-04-21T15:02:59.505Z,2.33
2023-04-21T15:08:03.553Z,2.42
2023-04-21T15:13:08.667Z,2.17
2023-04-21T15:23:16.016Z,3.30
2023-04-21T15:28:20.681Z,2.90
2023-04-21T15:33:24.315Z,4.28
2023-04-21T15:38:28.134Z,3.22
2023-04-21T15:43:33.158Z,3.40
2023-04-21T15:53:44.208Z,2.85
2023-04-21T15:58:49.141Z,3.85
2023-04-21T16:03:53.760Z,3.75
2023-04-21T16:08:57.544Z,3.30
2023-04-21T16:14:02.826Z,2.55
2023-04-21T16:19:06.766Z,3.05
2023-04-21T16:24:11.441Z,2.80
2023-04-21T16:29:16.705Z,3.45
2023-04-21T16:34:20.714Z,3.13
2023-04-21T16:39:24.648Z,3.70
2023-04-21T16:44:29.624Z,3.42
2023-04-21T16:49:33.261Z,3.63
2023-04-21T16:54:39.967Z,3.20
2023-04-21T16:59:45.194Z,4.07
2023-04-21T17:04:49.201Z,4.10
2023-04-21T17:09:53.298Z,3.73
2023-04-21T17:14:58.307Z,4.03
2023-04-21T17:20:02.033Z,4.80
2023-04-21T17:25:06.229Z,5.00
2023-04-21T17:30:11.606Z,4.10
2023-04-21T17:35:14.922Z,4.28
2023-04-21T17:40:18.919Z,4.35
2023-04-21T17:45:23.583Z,4.82
2023-04-21T17:50:27.741Z,4.50
2023-04-21T17:55:31.013Z,5.17
2023-04-21T18:00:35.747Z,4.85
2023-04-21T18:05:39.122Z,4.93
2023-04-21T18:10:42.730Z,4.05
2023-04-21T18:15:47.706Z,4.57
2023-04-21T18:20:51.443Z,4.55
2023-04-21T18:25:55.235Z,4.68
2023-04-21T18:31:00.807Z,5.30
2023-04-21T18:36:04.820Z,4.75
2023-04-21T18:41:08.589Z,4.70
2023-04-21T18:46:13.209Z,7.18
2023-04-21T18:51:16.850Z,6.10
2023-04-21T18:56:20.465Z,5.75
2023-04-21T19:01:25.677Z,4.90
2023-04-21T19:06:29.351Z,5.82
2023-04-21T19:11:33.470Z,5.95
2023-04-21T19:16:38.561Z,5.93
2023-04-21T19:21:41.830Z,7.30
2023-04-21T19:26:45.113Z,6.55
2023-04-21T19:31:49.726Z,5.65
2023-04-21T19:36:53.046Z,7.07
2023-04-21T19:41:57.608Z,6.75
2023-04-21T19:47:02.727Z,6.13
2023-04-21T19:52:06.032Z,6.60
2023-04-21T19:57:11.910Z,6.68
2023-04-21T20:02:17.151Z,6.53
2023-04-21T20:07:21.048Z,7.07
2023-04-21T20:12:24.469Z,6.57
2023-04-21T20:17:29.463Z,6.85
2023-04-21T20:22:32.753Z,7.05
2023-04-21T20:27:36.056Z,7.57
2023-04-21T20:32:40.693Z,6.93
2023-04-21T20:37:44.432Z,7.90
2023-04-21T20:42:48.658Z,8.45
2023-04-21T20:47:53.292Z,8.88
2023-04-21T20:52:56.760Z,8.90
2023-04-21T20:57:59.970Z,8.80
2023-04-21T21:03:09.951Z,9.00
2023-04-21T21:08:13.776Z,8.90
2023-04-21T21:13:17.371Z,9.10
2023-04-21T21:18:22.473Z,7.93
2023-04-21T21:23:26.251Z,8.52
2023-04-21T21:28:30.368Z,8.63
2023-04-21T21:33:37.406Z,8.25
2023-04-21T21:38:41.268Z,7.32
2023-04-21T21:43:45.007Z,8.63
2023-04-21T21:48:50.275Z,8.38
2023-04-21T21:53:53.987Z,8.50
2023-04-21T21:58:57.804Z,7.68
2023-04-21T22:04:02.590Z,8.10
2023-04-21T22:09:06.118Z,7.67
2023-04-21T22:14:22.145Z,8.18
2023-04-21T22:19:28.983Z,8.30
2023-04-21T22:24:32.342Z,8.80
2023-04-21T22:29:35.721Z,8.38
2023-04-21T22:34:40.504Z,7.38
2023-04-21T22:39:43.732Z,8.83
2023-04-21T22:44:47.247Z,7.82
2023-04-21T22:49:53.518Z,8.70
2023-04-21T22:54:56.764Z,9.60
2023-04-21T23:00:00.525Z,9.23
2023-04-21T23:05:06.082Z,8.88
2023-04-21T23:15:13.258Z,9.85
2023-04-21T23:20:18.467Z,9.30
2023-04-21T23:25:22.361Z,9.32
2023-04-21T23:30:26.072Z,8.93
2023-04-21T23:35:31.075Z,8.70
2023-04-21T23:40:34.759Z,8.23
2023-04-21T23:45:38.195Z,8.60
2023-04-21T23:50:42.881Z,8.48
2023-04-21T23:55:46.302Z,9.10
